Time;durP1;ratioP1;P1;durP2;ratioP2;P2;SDS_P1;SDS_P2;PMS_P1;PMS_P2;Temp;Humidity;BMP_temperature;BMP_pressure;BME280_temperature;BME280_humidity;BME280_pressure;Samples;Min_cycle;Max_cycle;Signal;HPM_P1;HPM_P2
2023/12/15 00:00:47;;;;;;;17.55;12.27;;;9.10;77.10;;;;;;5048537;28;20037;-54
2023/12/15 00:03:14;;;;;;;16.80;11.63;;;9.20;77.10;;;;;;5046472;28;20045;-55
2023/12/15 00:05:41;;;;;;;21.42;10.77;;;9.20;77.00;;;;;;5048318;28;20071;-55
2023/12/15 00:08:08;;;;;;;14.35;10.23;;;9.20;77.00;;;;;;5045398;28;20411;-52
2023/12/15 00:10:35;;;;;;;17.38;11.55;;;9.20;76.90;;;;;;5049770;28;20079;-52
2023/12/15 00:13:01;;;;;;;16.17;11.07;;;9.30;76.90;;;;;;5032349;28;20407;-54
2023/12/15 00:15:28;;;;;;;17.63;11.43;;;9.30;76.90;;;;;;5040990;28;20495;-52
2023/12/15 00:17:55;;;;;;;14.07;10.32;;;9.30;76.80;;;;;;5049616;28;20036;-56
2023/12/15 00:20:22;;;;;;;20.92;11.13;;;9.30;76.80;;;;;;5049530;28;20059;-53
2023/12/15 00:22:50;;;;;;;15.65;10.90;;;9.30;76.80;;;;;;5049911;28;20045;-54
2023/12/15 00:25:16;;;;;;;16.40;10.38;;;9.30;76.80;;;;;;5041825;28;20045;-57
2023/12/15 00:27:43;;;;;;;16.80;10.35;;;9.30;76.80;;;;;;5049989;28;20072;-55
2023/12/15 00:30:12;;;;;;;18.25;11.35;;;9.40;76.90;;;;;;5031789;28;20449;-54
2023/12/15 00:32:39;;;;;;;14.40;10.10;;;9.40;76.90;;;;;;5035596;28;20406;-57
2023/12/15 00:35:06;;;;;;;15.02;10.68;;;9.40;76.80;;;;;;5049412;28;20043;-56
2023/12/15 00:37:33;;;;;;;17.45;11.20;;;9.40;76.80;;;;;;5049811;28;20033;-56
2023/12/15 00:40:00;;;;;;;18.83;10.82;;;9.40;76.70;;;;;;5042003;28;20125;-54
2023/12/15 00:42:29;;;;;;;14.88;10.18;;;9.40;76.70;;;;;;5048051;28;20124;-52
2023/12/15 00:44:56;;;;;;;15.27;11.20;;;9.40;76.70;;;;;;5049233;28;20040;-53
2023/12/15 00:47:23;;;;;;;20.33;11.38;;;9.40;76.60;;;;;;5049689;28;20075;-55
2023/12/15 00:49:49;;;;;;;15.43;10.82;;;9.40;76.60;;;;;;5045617;28;20037;-56
2023/12/15 00:52:17;;;;;;;14.95;9.48;;;9.50;76.70;;;;;;5048995;28;20040;-54
2023/12/15 00:54:44;;;;;;;14.85;9.98;;;9.50;76.70;;;;;;5044104;28;20059;-54
2023/12/15 00:57:11;;;;;;;13.05;10.25;;;9.50;76.60;;;;;;5051247;28;20076;-52
2023/12/15 00:59:39;;;;;;;11.55;9.27;;;9.50;76.70;;;;;;5046353;28;20037;-54
2023/12/15 01:02:07;;;;;;;13.90;9.57;;;9.50;76.70;;;;;;5051103;28;20069;-56
2023/12/15 01:04:34;;;;;;;12.90;9.45;;;9.50;76.70;;;;;;5049366;28;20589;-53
2023/12/15 01:07:03;;;;;;;14.85;9.68;;;9.50;76.70;;;;;;5047542;28;20528;-56
2023/12/15 01:09:30;;;;;;;11.80;8.30;;;9.60;76.80;;;;;;5052841;28;20049;-55
2023/12/15 01:11:57;;;;;;;12.70;9.48;;;9.60;76.70;;;;;;5047406;28;20041;-52
2023/12/15 01:14:23;;;;;;;12.50;9.27;;;9.60;76.70;;;;;;5039450;28;20518;-56
2023/12/15 01:16:50;;;;;;;12.73;9.27;;;9.60;76.70;;;;;;5049058;28;20064;-55
2023/12/15 01:19:17;;;;;;;13.40;9.15;;;9.60;76.80;;;;;;5052786;28;20052;-55
2023/12/15 01:21:45;;;;;;;13.52;9.32;;;9.60;76.80;;;;;;5053056;28;20041;-54
2023/12/15 01:24:12;;;;;;;15.27;9.93;;;9.60;76.80;;;;;;5045199;28;20041;-54
2023/12/15 01:26:39;;;;;;;14.73;9.77;;;9.60;76.90;;;;;;5051525;28;20045;-55
2023/12/15 01:29:05;;;;;;;13.13;10.23;;;9.60;76.90;;;;;;5052898;28;20120;-54
2023/12/15 01:31:32;;;;;;;13.00;10.65;;;9.60;77.10;;;;;;5052705;28;20116;-54
2023/12/15 01:33:59;;;;;;;13.13;9.65;;;9.60;77.70;;;;;;5049876;28;20041;-56
2023/12/15 01:36:28;;;;;;;14.73;10.18;;;9.60;77.20;;;;;;5052630;28;20102;-53
2023/12/15 01:38:55;;;;;;;15.55;10.38;;;9.60;77.30;;;;;;5052221;28;20068;-54
2023/12/15 01:41:22;;;;;;;16.05;10.10;;;9.60;77.30;;;;;;5052633;28;20057;-55
2023/12/15 01:43:51;;;;;;;13.85;9.60;;;9.60;77.40;;;;;;5048332;28;20150;-53
2023/12/15 01:46:18;;;;;;;11.90;9.80;;;9.60;77.40;;;;;;5051164;28;20052;-54
2023/12/15 01:48:44;;;;;;;14.57;9.65;;;9.60;77.40;;;;;;5052572;28;20044;-54
2023/12/15 01:51:11;;;;;;;13.27;10.32;;;9.60;77.50;;;;;;5045099;28;20060;-54
2023/12/15 01:53:42;;;;;;;13.27;8.68;;;9.60;77.60;;;;;;5048298;28;20136;-53
2023/12/15 01:56:10;;;;;;;16.35;10.02;;;9.60;77.60;;;;;;5047197;28;20122;-53
2023/12/15 01:58:39;;;;;;;12.50;8.88;;;9.50;77.70;;;;;;5039585;28;20083;-57
2023/12/15 02:01:08;;;;;;;12.85;8.93;;;9.50;77.80;;;;;;5049259;28;20107;-57
2023/12/15 02:03:35;;;;;;;12.25;8.43;;;9.50;77.90;;;;;;5048515;28;20423;-52
2023/12/15 02:06:02;;;;;;;17.80;9.73;;;9.60;77.90;;;;;;5043555;28;20053;-54
2023/12/15 02:08:29;;;;;;;12.70;8.52;;;9.60;78.00;;;;;;5048709;28;20041;-56
2023/12/15 02:10:56;;;;;;;12.05;8.40;;;9.60;78.00;;;;;;5052106;28;20041;-54
2023/12/15 02:13:23;;;;;;;18.45;9.18;;;9.60;78.00;;;;;;5051882;28;20131;-56
2023/12/15 02:15:49;;;;;;;14.85;8.90;;;9.60;78.10;;;;;;5042146;28;20038;-53
2023/12/15 02:18:16;;;;;;;14.07;9.70;;;9.60;78.10;;;;;;5051513;28;20124;-54
2023/12/15 02:20:45;;;;;;;13.23;9.40;;;9.60;78.10;;;;;;5051617;28;20041;-56
2023/12/15 02:23:13;;;;;;;9.98;8.25;;;9.60;78.10;;;;;;5045408;28;20079;-54
2023/12/15 02:25:41;;;;;;;11.40;8.90;;;9.60;78.20;;;;;;5048231;28;20055;-55
2023/12/15 02:28:07;;;;;;;12.55;9.77;;;9.60;78.20;;;;;;5051906;28;20735;-53
2023/12/15 02:30:34;;;;;;;14.27;9.10;;;9.60;78.20;;;;;;5051328;28;20523;-53
2023/12/15 02:33:01;;;;;;;12.98;10.00;;;9.60;78.40;;;;;;5044077;28;20061;-55
2023/12/15 02:35:28;;;;;;;12.95;10.18;;;9.60;78.40;;;;;;5049110;28;20044;-53
2023/12/15 02:37:55;;;;;;;14.02;10.18;;;9.60;78.40;;;;;;5051620;28;20041;-54
2023/12/15 02:40:21;;;;;;;16.75;10.88;;;9.60;78.50;;;;;;5048160;28;20504;-56
2023/12/15 02:42:48;;;;;;;13.95;10.50;;;9.60;78.50;;;;;;5049758;28;20113;-52
2023/12/15 02:45:15;;;;;;;14.40;11.02;;;9.60;78.60;;;;;;5051139;28;20076;-52
2023/12/15 02:47:41;;;;;;;13.27;10.60;;;9.60;78.50;;;;;;5051077;28;20051;-52
2023/12/15 02:50:11;;;;;;;16.05;11.57;;;9.60;78.50;;;;;;5044874;28;20048;-55
2023/12/15 02:52:38;;;;;;;14.85;11.27;;;9.60;78.50;;;;;;5051180;28;20051;-56
2023/12/15 02:55:05;;;;;;;14.50;11.40;;;9.70;78.60;;;;;;5046630;28;20075;-53
2023/12/15 02:57:31;;;;;;;16.98;11.10;;;9.70;78.60;;;;;;5044840;28;20041;-52
2023/12/15 02:59:58;;;;;;;14.98;12.00;;;9.70;78.60;;;;;;5045753;28;20563;-55
2023/12/15 03:02:25;;;;;;;14.30;11.48;;;9.70;78.60;;;;;;5048624;28;20055;-55
2023/12/15 03:04:51;;;;;;;14.65;11.98;;;9.70;78.70;;;;;;5047976;28;20037;-56
2023/12/15 03:07:20;;;;;;;17.35;12.43;;;9.70;78.90;;;;;;5044884;28;20091;-54
2023/12/15 03:09:47;;;;;;;18.80;13.25;;;9.70;78.50;;;;;;5050414;28;20040;-52
2023/12/15 03:12:13;;;;;;;16.95;12.00;;;9.70;79.20;;;;;;5051203;28;20126;-53
2023/12/15 03:14:40;;;;;;;14.95;12.45;;;9.70;78.70;;;;;;5050305;28;20071;-56
2023/12/15 03:17:07;;;;;;;15.60;11.70;;;9.70;78.70;;;;;;5047984;28;20123;-56
2023/12/15 03:19:34;;;;;;;19.00;12.02;;;9.80;78.70;;;;;;5050551;28;20049;-55
2023/12/15 03:22:04;;;;;;;16.73;12.68;;;9.80;78.70;;;;;;5050455;28;20128;-54
2023/12/15 03:24:30;;;;;;;15.43;12.23;;;9.70;78.70;;;;;;5045691;28;20120;-54
2023/12/15 03:26:57;;;;;;;15.50;12.07;;;9.80;78.80;;;;;;5049220;28;20067;-55
2023/12/15 03:29:23;;;;;;;16.98;12.32;;;9.80;78.80;;;;;;5050296;28;20069;-57
2023/12/15 03:31:50;;;;;;;17.27;12.75;;;9.70;78.80;;;;;;5050625;28;20044;-56
2023/12/15 03:34:17;;;;;;;16.33;12.40;;;9.80;79.00;;;;;;5044229;28;20047;-57
2023/12/15 03:36:46;;;;;;;17.63;12.45;;;9.70;79.00;;;;;;5049656;28;20056;-56
2023/12/15 03:39:13;;;;;;;16.55;12.65;;;9.80;79.00;;;;;;5050415;28;20468;-56
2023/12/15 03:41:39;;;;;;;16.90;12.43;;;9.80;79.00;;;;;;5047012;28;20562;-55
2023/12/15 03:44:07;;;;;;;18.65;13.20;;;9.80;78.90;;;;;;5045688;28;20511;-53
2023/12/15 03:46:37;;;;;;;17.35;12.95;;;9.80;78.90;;;;;;5050359;28;20158;-52
2023/12/15 03:49:03;;;;;;;17.45;12.50;;;9.80;79.00;;;;;;5048766;28;20068;-52
2023/12/15 03:51:30;;;;;;;17.63;13.07;;;9.80;78.90;;;;;;5038655;28;20661;-53
2023/12/15 03:53:57;;;;;;;15.88;11.80;;;9.80;79.00;;;;;;5044204;28;20504;-57
2023/12/15 03:56:25;;;;;;;18.08;12.10;;;9.80;79.10;;;;;;5045878;28;20045;-55
2023/12/15 03:58:52;;;;;;;16.17;11.98;;;9.80;79.10;;;;;;5043547;28;20049;-56
2023/12/15 04:01:19;;;;;;;13.73;11.30;;;9.80;79.10;;;;;;5044132;28;20045;-52
2023/12/15 04:03:48;;;;;;;15.48;12.00;;;9.80;79.10;;;;;;5046253;28;20426;-56
2023/12/15 04:06:15;;;;;;;18.88;11.82;;;9.80;79.30;;;;;;5047154;28;20053;-56
2023/12/15 04:08:42;;;;;;;17.83;12.07;;;9.80;79.20;;;;;;5047034;28;20094;-54
2023/12/15 04:11:09;;;;;;;16.77;11.75;;;9.80;79.20;;;;;;5050058;28;20415;-56
2023/12/15 04:13:36;;;;;;;19.42;12.50;;;9.80;79.30;;;;;;5049335;28;20090;-51
2023/12/15 04:16:04;;;;;;;17.08;12.90;;;9.80;79.30;;;;;;5064704;22;20127;-57
2023/12/15 04:18:32;;;;;;;18.70;12.80;;;9.90;79.40;;;;;;5029471;28;20049;-56
2023/12/15 04:21:00;;;;;;;15.10;12.07;;;9.90;79.40;;;;;;5039599;28;20203;-56
2023/12/15 04:23:27;;;;;;;20.15;13.02;;;9.90;79.40;;;;;;5046263;28;20523;-56
2023/12/15 04:25:54;;;;;;;18.90;12.65;;;9.90;79.40;;;;;;5034350;28;20057;-57
2023/12/15 04:28:21;;;;;;;18.13;12.32;;;9.90;79.50;;;;;;5030745;28;20045;-57
2023/12/15 04:30:48;;;;;;;18.02;13.05;;;9.90;79.50;;;;;;5028251;28;20117;-57
2023/12/15 04:33:15;;;;;;;17.65;12.15;;;9.90;79.40;;;;;;5037791;28;20505;-57
2023/12/15 04:35:42;;;;;;;16.52;12.68;;;9.90;79.40;;;;;;5033535;28;20049;-56
2023/12/15 04:38:11;;;;;;;19.65;12.40;;;10.00;79.50;;;;;;5033957;28;20064;-57
2023/12/15 04:40:38;;;;;;;18.48;12.02;;;9.90;79.50;;;;;;5033655;28;20407;-57
2023/12/15 04:43:09;;;;;;;17.00;12.60;;;9.90;79.50;;;;;;5038243;28;20457;-57
2023/12/15 04:45:38;;;;;;;17.02;12.05;;;9.90;79.40;;;;;;5031374;28;20115;-58
2023/12/15 04:48:05;;;;;;;20.63;12.07;;;10.00;79.50;;;;;;5033937;28;20042;-57
2023/12/15 04:50:32;;;;;;;16.52;10.73;;;10.00;79.50;;;;;;5033520;28;20049;-56
2023/12/15 04:53:02;;;;;;;16.38;11.35;;;10.00;79.60;;;;;;5030847;28;20038;-57
2023/12/15 04:55:30;;;;;;;15.98;10.82;;;10.00;79.60;;;;;;5038470;28;20429;-57
2023/12/15 04:57:56;;;;;;;15.25;10.70;;;10.00;79.60;;;;;;5034664;28;20065;-57
2023/12/15 05:00:26;;;;;;;15.60;12.27;;;10.00;79.60;;;;;;5020898;28;20050;-57
2023/12/15 05:02:52;;;;;;;14.98;11.45;;;10.00;79.60;;;;;;5014159;28;20112;-58
2023/12/15 05:05:19;;;;;;;15.90;10.85;;;10.00;79.50;;;;;;5022573;28;20068;-58
2023/12/15 05:07:49;;;;;;;16.52;11.30;;;10.10;79.70;;;;;;5033534;28;20458;-58
2023/12/15 05:10:16;;;;;;;16.48;10.82;;;10.10;79.70;;;;;;5031730;28;20041;-57
2023/12/15 05:12:45;;;;;;;15.52;11.65;;;10.10;79.70;;;;;;5033010;28;20045;-55
2023/12/15 05:15:11;;;;;;;19.27;13.00;;;10.10;79.70;;;;;;5033502;28;20526;-58
2023/12/15 05:17:38;;;;;;;17.88;12.75;;;10.10;79.70;;;;;;5034931;28;20087;-57
2023/12/15 05:20:08;;;;;;;16.50;12.27;;;10.10;79.70;;;;;;5032793;28;20056;-58
2023/12/15 05:22:34;;;;;;;19.10;12.07;;;10.10;79.70;;;;;;5033216;28;20060;-58
2023/12/15 05:25:01;;;;;;;16.23;11.85;;;10.10;79.70;;;;;;5034464;28;20049;-57
2023/12/15 05:27:28;;;;;;;19.25;12.75;;;10.20;79.90;;;;;;5029853;28;20076;-57
2023/12/15 05:29:55;;;;;;;23.70;13.98;;;10.10;79.80;;;;;;5032948;28;20045;-57
2023/12/15 05:32:24;;;;;;;19.20;13.32;;;10.20;79.80;;;;;;5033163;28;20041;-57
2023/12/15 05:34:51;;;;;;;20.33;13.40;;;10.20;79.80;;;;;;5033946;28;20047;-58
2023/12/15 05:37:18;;;;;;;20.83;13.73;;;10.20;79.90;;;;;;5032959;28;20072;-56
2023/12/15 05:39:45;;;;;;;18.20;12.63;;;10.20;79.90;;;;;;5031647;28;20045;-57
2023/12/15 05:42:12;;;;;;;19.20;13.43;;;10.20;80.00;;;;;;5035426;28;20120;-57
2023/12/15 05:44:49;;;;;;;25.35;15.18;;;10.20;79.90;;;;;;5032335;28;20048;-57
2023/12/15 05:47:15;;;;;;;24.45;14.48;;;10.20;79.90;;;;;;5032791;28;20129;-56
2023/12/15 05:49:42;;;;;;;24.88;15.73;;;10.20;79.80;;;;;;5032854;28;20076;-56
2023/12/15 05:52:10;;;;;;;23.15;15.15;;;10.30;79.90;;;;;;5034164;28;20041;-58
2023/12/15 05:54:40;;;;;;;26.52;16.58;;;10.20;79.90;;;;;;5032519;28;20037;-58
2023/12/15 05:57:07;;;;;;;28.35;18.35;;;10.30;80.00;;;;;;5033109;28;20120;-58
2023/12/15 05:59:38;;;;;;;26.42;17.58;;;10.30;80.00;;;;;;5028179;28;20038;-56
2023/12/15 06:02:09;;;;;;;30.15;18.40;;;10.30;80.00;;;;;;5012891;28;20073;-58
2023/12/15 06:04:36;;;;;;;32.50;18.83;;;10.30;80.00;;;;;;5011859;28;20045;-58
2023/12/15 06:07:03;;;;;;;32.83;19.65;;;10.30;80.00;;;;;;5016319;28;20056;-57
2023/12/15 06:09:29;;;;;;;34.13;22.05;;;10.30;80.00;;;;;;5033843;28;20068;-58
2023/12/15 06:11:56;;;;;;;34.28;21.33;;;10.30;80.00;;;;;;5032229;28;20554;-58
2023/12/15 06:14:25;;;;;;;37.42;22.02;;;10.30;80.00;;;;;;5031658;28;20054;-58
2023/12/15 06:16:52;;;;;;;37.35;23.17;;;10.30;80.00;;;;;;5034328;28;20037;-58
2023/12/15 06:19:18;;;;;;;38.03;22.90;;;10.30;80.00;;;;;;5031417;28;20144;-58
2023/12/15 06:21:47;;;;;;;42.05;25.33;;;10.30;80.10;;;;;;5031971;28;20053;-56
2023/12/15 06:24:14;;;;;;;39.13;24.23;;;10.40;80.10;;;;;;5031282;28;20053;-58
2023/12/15 06:26:41;;;;;;;40.90;25.13;;;10.40;80.10;;;;;;5025103;28;20107;-57
2023/12/15 06:29:10;;;;;;;47.42;25.92;;;10.40;80.10;;;;;;5012093;28;20500;-56
2023/12/15 06:31:36;;;;;;;38.88;25.10;;;10.40;80.10;;;;;;5018656;28;20450;-58
2023/12/15 06:34:03;;;;;;;43.22;26.60;;;10.40;80.10;;;;;;5031278;28;20071;-57
2023/12/15 06:36:30;;;;;;;39.42;23.77;;;10.40;80.10;;;;;;5031829;28;20116;-58
2023/12/15 06:38:57;;;;;;;39.42;22.73;;;10.40;80.10;;;;;;5031784;28;20517;-57
2023/12/15 06:41:27;;;;;;;42.70;25.20;;;10.40;80.10;;;;;;5032038;28;20496;-58
2023/12/15 06:43:53;;;;;;;41.70;24.27;;;10.40;80.10;;;;;;5031317;28;20065;-58
2023/12/15 06:46:20;;;;;;;42.38;24.02;;;10.40;80.20;;;;;;5031031;28;20069;-57
2023/12/15 06:48:47;;;;;;;35.28;21.73;;;10.50;80.20;;;;;;5031526;28;20042;-57
2023/12/15 06:51:17;;;;;;;38.22;22.33;;;10.50;80.10;;;;;;5031698;28;20088;-58
2023/12/15 06:53:43;;;;;;;32.33;21.92;;;10.50;80.10;;;;;;5030887;28;20037;-58
2023/12/15 06:56:10;;;;;;;36.60;20.00;;;10.50;80.10;;;;;;5031459;28;20045;-58
2023/12/15 06:58:40;;;;;;;31.42;21.88;;;10.50;80.10;;;;;;5033129;28;20065;-58
2023/12/15 07:01:06;;;;;;;33.08;20.85;;;10.50;80.10;;;;;;5016572;28;20048;-57
2023/12/15 07:03:33;;;;;;;33.55;21.08;;;10.50;80.00;;;;;;5012009;28;20042;-57
2023/12/15 07:06:01;;;;;;;38.85;22.10;;;10.50;80.00;;;;;;5020381;28;20487;-58
2023/12/15 07:08:28;;;;;;;39.03;22.67;;;10.50;80.10;;;;;;5024317;28;20053;-57
2023/12/15 07:10:54;;;;;;;41.28;23.08;;;10.50;80.10;;;;;;5031429;28;20091;-55
2023/12/15 07:13:21;;;;;;;36.97;23.38;;;10.60;80.20;;;;;;5031138;28;20410;-58
2023/12/15 07:15:49;;;;;;;36.17;20.92;;;10.50;80.10;;;;;;5025452;28;20124;-56
2023/12/15 07:18:16;;;;;;;38.10;22.38;;;10.50;80.00;;;;;;5033130;28;20088;-57
2023/12/15 07:20:43;;;;;;;35.08;22.88;;;10.50;80.00;;;;;;5031138;28;20108;-58
2023/12/15 07:23:15;;;;;;;35.67;21.98;;;10.60;80.20;;;;;;5031180;28;20412;-58
2023/12/15 07:25:44;;;;;;;35.53;22.88;;;10.60;80.20;;;;;;5032409;28;20124;-57
2023/12/15 07:28:14;;;;;;;35.00;21.33;;;10.60;80.20;;;;;;5031198;28;20061;-58
2023/12/15 07:30:46;;;;;;;37.42;21.95;;;10.60;80.20;;;;;;5031308;28;20091;-57
2023/12/15 07:33:13;;;;;;;36.55;20.92;;;10.60;80.20;;;;;;5031982;28;20057;-58
2023/12/15 07:35:40;;;;;;;36.55;20.27;;;10.60;80.20;;;;;;5021185;28;20037;-58
2023/12/15 07:38:09;;;;;;;35.53;20.17;;;10.60;80.10;;;;;;5031298;28;20156;-56
2023/12/15 07:40:40;;;;;;;38.22;21.27;;;10.60;80.10;;;;;;5031402;28;20072;-58
2023/12/15 07:43:08;;;;;;;36.15;22.08;;;10.60;80.10;;;;;;5031334;28;20388;-58
2023/12/15 07:45:35;;;;;;;35.05;20.65;;;10.60;80.10;;;;;;5030618;28;20567;-58
2023/12/15 07:48:02;;;;;;;39.45;22.85;;;10.60;80.10;;;;;;5024806;28;20037;-57
2023/12/15 07:50:29;;;;;;;38.67;23.55;;;10.70;80.20;;;;;;5032940;28;20129;-58
2023/12/15 07:52:57;;;;;;;42.80;27.10;;;10.60;80.10;;;;;;5030760;28;20045;-57
2023/12/15 07:55:24;;;;;;;45.92;28.95;;;10.60;80.00;;;;;;5030823;28;20052;-57
2023/12/15 07:57:51;;;;;;;47.63;30.40;;;10.70;80.10;;;;;;5033521;28;20107;-58
2023/12/15 08:00:24;;;;;;;48.28;29.30;;;10.70;80.10;;;;;;5020963;28;20042;-58
2023/12/15 08:02:53;;;;;;;41.38;26.15;;;10.70;80.00;;;;;;5011138;28;20543;-58
2023/12/15 08:05:20;;;;;;;45.47;27.10;;;10.70;80.10;;;;;;5012025;28;20059;-57
2023/12/15 08:07:47;;;;;;;40.22;25.42;;;10.70;80.10;;;;;;5033789;28;20107;-58
2023/12/15 08:10:14;;;;;;;42.47;23.58;;;10.70;80.00;;;;;;5029042;28;20467;-58
2023/12/15 08:12:40;;;;;;;41.92;23.55;;;10.70;80.00;;;;;;5030728;28;20068;-56
2023/12/15 08:15:08;;;;;;;38.13;23.27;;;10.70;80.00;;;;;;5032911;28;20037;-57
2023/12/15 08:17:34;;;;;;;38.00;24.15;;;10.70;80.00;;;;;;5032342;28;20408;-56
2023/12/15 08:20:02;;;;;;;42.05;25.00;;;10.80;80.10;;;;;;5030243;28;20042;-58
2023/12/15 08:22:29;;;;;;;48.40;26.40;;;10.80;80.20;;;;;;5030793;28;20042;-57
2023/12/15 08:24:56;;;;;;;37.42;24.80;;;10.80;80.10;;;;;;5030509;28;20061;-58
2023/12/15 08:27:24;;;;;;;45.08;26.45;;;10.80;80.10;;;;;;5030536;28;20133;-58
2023/12/15 08:29:51;;;;;;;45.72;25.83;;;10.80;80.10;;;;;;5030267;28;20045;-57
2023/12/15 08:32:20;;;;;;;43.47;25.38;;;10.80;80.10;;;;;;5030673;28;20056;-58
2023/12/15 08:34:47;;;;;;;38.97;23.17;;;10.80;80.00;;;;;;5029604;28;20048;-58
2023/12/15 08:37:16;;;;;;;37.33;21.40;;;10.80;80.10;;;;;;5030563;28;20087;-58
2023/12/15 08:39:43;;;;;;;38.45;23.30;;;10.90;80.20;;;;;;5030166;28;20125;-58
2023/12/15 08:42:12;;;;;;;39.53;23.58;;;10.90;80.10;;;;;;5032173;28;20046;-58
2023/12/15 08:44:46;;;;;;;37.83;21.08;;;10.90;80.10;;;;;;5030029;28;20536;-58
2023/12/15 08:47:13;;;;;;;41.22;22.38;;;10.90;80.10;;;;;;5025138;28;20129;-57
2023/12/15 08:49:39;;;;;;;35.80;22.67;;;10.90;80.10;;;;;;5032681;28;20112;-57
2023/12/15 08:52:06;;;;;;;40.67;23.00;;;10.90;80.10;;;;;;5030291;28;20038;-58
2023/12/15 08:54:35;;;;;;;37.90;21.83;;;11.00;80.10;;;;;;5030628;28;20041;-58
2023/12/15 08:57:02;;;;;;;37.50;22.00;;;10.90;80.00;;;;;;5027544;28;20140;-58
2023/12/15 08:59:29;;;;;;;34.78;21.02;;;11.00;80.00;;;;;;5028035;28;20546;-57
2023/12/15 09:01:56;;;;;;;45.40;23.15;;;11.00;80.00;;;;;;5010964;28;20046;-58
2023/12/15 09:04:30;;;;;;;42.38;24.23;;;11.00;80.00;;;;;;5013545;28;20052;-58
2023/12/15 09:06:57;;;;;;;39.83;23.85;;;11.00;80.00;;;;;;5027280;28;20121;-57
2023/12/15 09:09:25;;;;;;;40.47;24.23;;;11.00;80.00;;;;;;5028510;28;20103;-56
2023/12/15 09:11:52;;;;;;;41.42;23.42;;;11.00;80.00;;;;;;5030119;28;20064;-58
2023/12/15 09:14:23;;;;;;;47.42;24.65;;;11.00;80.00;;;;;;5032640;28;20114;-58
2023/12/15 09:16:50;;;;;;;41.80;23.50;;;11.00;79.90;;;;;;5035462;28;20041;-56
2023/12/15 09:19:17;;;;;;;40.60;22.52;;;11.10;80.00;;;;;;5033650;28;20069;-58
2023/12/15 09:21:43;;;;;;;39.80;23.40;;;11.10;80.00;;;;;;5033700;28;20455;-58
2023/12/15 09:24:15;;;;;;;40.83;23.75;;;11.10;80.00;;;;;;5035939;28;20132;-57
2023/12/15 09:26:44;;;;;;;41.42;24.10;;;11.10;80.00;;;;;;5033296;28;20076;-58
2023/12/15 09:29:12;;;;;;;43.15;25.15;;;11.10;80.00;;;;;;5033518;28;20046;-58
2023/12/15 09:31:42;;;;;;;41.38;25.17;;;11.10;80.00;;;;;;5033388;28;20092;-57
2023/12/15 09:34:08;;;;;;;41.65;24.60;;;11.10;80.00;;;;;;5037372;28;20037;-58
2023/12/15 09:36:35;;;;;;;45.05;26.17;;;11.20;80.00;;;;;;5033309;28;20045;-56
2023/12/15 09:39:03;;;;;;;49.15;25.70;;;11.20;80.00;;;;;;5033307;28;20065;-58
2023/12/15 09:41:30;;;;;;;41.35;26.00;;;11.20;80.00;;;;;;5029067;28;20072;-57
2023/12/15 09:43:56;;;;;;;43.17;25.35;;;11.20;80.00;;;;;;5035632;28;20053;-58
2023/12/15 09:46:24;;;;;;;41.28;25.75;;;11.20;80.10;;;;;;5032889;28;20424;-58
2023/12/15 09:48:51;;;;;;;43.35;25.50;;;11.30;80.10;;;;;;5033494;28;20091;-58
2023/12/15 09:51:23;;;;;;;40.22;25.33;;;11.30;80.20;;;;;;5034861;28;20068;-58
2023/12/15 09:53:50;;;;;;;45.05;26.52;;;11.40;80.30;;;;;;5034832;28;20036;-56
2023/12/15 09:56:17;;;;;;;37.85;24.08;;;11.40;80.30;;;;;;5032761;28;20069;-58
2023/12/15 09:58:44;;;;;;;41.45;24.13;;;11.40;80.20;;;;;;5035609;28;20061;-58
2023/12/15 10:01:11;;;;;;;45.65;26.52;;;11.40;80.10;;;;;;5018948;28;20435;-58
2023/12/15 10:03:39;;;;;;;41.95;24.58;;;11.50;80.10;;;;;;5013281;28;20052;-58
2023/12/15 10:06:06;;;;;;;37.97;23.00;;;11.50;79.90;;;;;;5017352;28;20495;-57
2023/12/15 10:08:44;;;;;;;42.28;24.35;;;11.60;79.80;;;;;;5035205;28;20116;-56
2023/12/15 10:11:32;;;;;;;39.40;22.33;;;11.60;79.80;;;;;;5027923;28;20041;-57
2023/12/15 10:14:04;;;;;;;37.73;23.47;;;11.60;79.60;;;;;;5034393;28;20037;-56
2023/12/15 10:16:36;;;;;;;34.22;21.55;;;11.70;79.60;;;;;;5084624;22;20060;-51
2023/12/15 10:19:07;;;;;;;38.63;22.17;;;11.60;79.50;;;;;;5072376;28;20120;-51
2023/12/15 10:21:35;;;;;;;39.38;23.23;;;11.70;80.10;;;;;;5072538;28;20044;-51
2023/12/15 10:24:22;;;;;;;36.17;21.73;;;11.70;79.50;;;;;;5069134;28;20090;-52
2023/12/15 10:26:54;;;;;;;39.88;22.95;;;11.70;79.60;;;;;;5066268;28;20048;-53
2023/12/15 10:29:26;;;;;;;37.30;22.38;;;11.70;79.50;;;;;;5072304;28;20056;-51
2023/12/15 10:31:53;;;;;;;38.55;23.38;;;11.70;79.40;;;;;;5070033;28;20442;-54
2023/12/15 10:34:27;;;;;;;38.95;23.38;;;11.80;79.50;;;;;;5064793;28;20037;-51
2023/12/15 10:36:57;;;;;;;39.70;23.10;;;11.80;80.10;;;;;;5072290;28;20044;-50
2023/12/15 10:39:24;;;;;;;42.20;23.55;;;11.80;79.40;;;;;;5071914;28;20048;-51
2023/12/15 10:41:52;;;;;;;42.72;24.08;;;11.90;79.50;;;;;;5065651;28;20048;-52
2023/12/15 10:44:20;;;;;;;44.92;26.25;;;11.90;79.30;;;;;;5068554;28;20138;-56
2023/12/15 10:46:48;;;;;;;36.85;23.70;;;11.90;79.30;;;;;;5071948;28;20052;-56
2023/12/15 10:49:18;;;;;;;43.35;24.08;;;11.90;79.30;;;;;;5071048;28;20040;-55
2023/12/15 10:51:47;;;;;;;42.60;24.08;;;11.90;79.10;;;;;;5063368;28;20088;-55
2023/12/15 10:54:16;;;;;;;46.92;25.40;;;12.00;79.00;;;;;;5066598;28;20098;-56
2023/12/15 10:56:47;;;;;;;45.17;25.13;;;12.00;78.80;;;;;;5064554;28;20044;-54
2023/12/15 10:59:14;;;;;;;43.42;24.73;;;12.10;78.90;;;;;;5061633;28;20040;-56
2023/12/15 11:01:46;;;;;;;39.35;22.38;;;12.00;78.80;;;;;;5063008;28;20047;-58
2023/12/15 11:04:22;;;;;;;40.70;24.63;;;12.00;78.90;;;;;;5066017;28;20052;-58
2023/12/15 11:06:49;;;;;;;41.20;23.83;;;12.10;79.00;;;;;;5064639;28;20056;-51
2023/12/15 11:09:34;;;;;;;40.95;24.13;;;12.10;78.90;;;;;;5069493;28;20039;-54
2023/12/15 11:12:25;;;;;;;47.70;24.50;;;12.10;78.70;;;;;;5071708;28;20503;-54
2023/12/15 11:15:12;;;;;;;40.85;23.73;;;12.20;78.70;;;;;;5063078;28;20076;-52
2023/12/15 11:17:46;;;;;;;41.03;25.40;;;12.20;78.60;;;;;;5068123;28;20570;-51
2023/12/15 11:20:22;;;;;;;39.35;23.40;;;12.20;78.50;;;;;;5071187;28;20054;-55
2023/12/15 11:22:56;;;;;;;39.15;23.73;;;12.20;78.40;;;;;;5069107;28;20454;-53
2023/12/15 11:25:37;;;;;;;42.38;23.60;;;12.20;78.40;;;;;;5059838;28;20056;-52
2023/12/15 11:28:11;;;;;;;41.15;24.13;;;12.30;78.40;;;;;;5070770;28;20106;-52
2023/12/15 11:30:40;;;;;;;37.70;24.20;;;12.30;78.40;;;;;;5071096;28;20048;-51
2023/12/15 11:33:26;;;;;;;39.47;24.30;;;12.30;78.30;;;;;;5066312;28;20071;-55
2023/12/15 11:36:05;;;;;;;35.70;23.85;;;12.30;78.10;;;;;;5068976;28;20044;-55
2023/12/15 11:38:35;;;;;;;44.15;25.27;;;12.40;78.10;;;;;;5066220;28;20040;-53
2023/12/15 11:41:02;;;;;;;39.60;24.73;;;12.40;78.10;;;;;;5069176;28;20037;-58
2023/12/15 11:43:32;;;;;;;36.08;23.55;;;12.40;78.00;;;;;;5066557;28;20120;-57
2023/12/15 11:46:03;;;;;;;37.20;24.20;;;12.40;77.90;;;;;;5070631;28;20054;-55
2023/12/15 11:48:30;;;;;;;38.03;22.77;;;12.40;77.90;;;;;;5062285;28;20065;-54
2023/12/15 11:50:57;;;;;;;33.22;23.15;;;12.40;77.90;;;;;;5059785;28;20110;-57
2023/12/15 11:53:25;;;;;;;33.97;22.63;;;12.40;77.80;;;;;;5064846;28;20316;-56
2023/12/15 11:55:52;;;;;;;35.33;22.58;;;12.40;77.80;;;;;;5056441;28;20051;-58
2023/12/15 11:58:22;;;;;;;38.55;24.65;;;12.50;77.60;;;;;;5063858;28;20044;-54
2023/12/15 12:00:52;;;;;;;37.03;22.80;;;12.50;77.60;;;;;;5062442;28;20033;-57
2023/12/15 12:03:22;;;;;;;37.95;23.48;;;12.50;77.60;;;;;;5060175;28;20059;-54
2023/12/15 12:05:53;;;;;;;33.35;22.48;;;12.50;77.50;;;;;;5056667;28;20123;-52
2023/12/15 12:08:23;;;;;;;34.53;23.40;;;12.50;77.40;;;;;;5067243;28;20475;-53
2023/12/15 12:10:57;;;;;;;38.95;22.38;;;12.50;77.20;;;;;;5069378;28;20052;-54
2023/12/15 12:13:39;;;;;;;37.05;22.40;;;12.50;77.00;;;;;;5070470;28;20044;-55
2023/12/15 12:16:11;;;;;;;38.17;23.80;;;12.50;76.80;;;;;;5064917;28;20514;-55
2023/12/15 12:18:41;;;;;;;35.15;22.85;;;12.50;77.00;;;;;;5061459;28;20136;-57
2023/12/15 12:21:08;;;;;;;36.50;22.75;;;12.50;77.10;;;;;;5070272;28;20082;-52
2023/12/15 12:23:36;;;;;;;32.95;21.80;;;12.50;77.00;;;;;;5067327;28;20400;-52
2023/12/15 12:26:12;;;;;;;34.72;21.70;;;12.50;77.00;;;;;;5055027;28;20045;-57
2023/12/15 12:28:44;;;;;;;36.78;22.10;;;12.50;76.80;;;;;;5070614;28;20082;-52
2023/12/15 12:31:10;;;;;;;32.00;21.05;;;12.50;76.70;;;;;;5068412;28;20118;-53
2023/12/15 12:33:37;;;;;;;36.25;21.80;;;12.50;76.70;;;;;;5065888;28;20068;-55
2023/12/15 12:36:06;;;;;;;35.25;21.65;;;12.50;76.80;;;;;;5070081;28;20640;-56